Index of /hbasees

[ICO]NameLast modifiedSizeDescription

[DIR]Parent Directory  -  
[DIR]Acoustic/07-May-2015 16:07 -  
[DIR]Astro/09-Nov-2016 10:23 -  
[DIR]Atomic/07-May-2015 16:07 -  
[DIR]Audio/07-May-2015 16:07 -  
[DIR]Biology/07-May-2015 16:07 -  
[DIR]Chemical/07-May-2015 16:07 -  
[DIR]Class/07-May-2015 16:07 -  
[DIR]Electronic/07-May-2015 16:08 -  
[DIR]ExProb/07-May-2015 16:08 -  
[DIR]Fluids/08-Feb-2017 11:56 -  
[DIR]Forces/07-May-2015 16:08 -  
[DIR]Geophys/07-May-2015 16:08 -  
[DIR]Health/07-May-2015 16:08 -  
[DIR]Kinetic/07-May-2015 16:08 -  
[DIR]MPII/07-May-2015 16:09 -  
[DIR]Math/07-May-2015 16:08 -  
[DIR]Mechanics/29-Mar-2017 14:31 -  
[DIR]Minerals/07-May-2015 16:08 -  
[DIR]Music/07-May-2015 16:09 -  
[DIR]NucEne/07-May-2015 16:09 -  
[DIR]Nuclear/09-Nov-2016 10:25 -  
[DIR]Optics/07-May-2015 16:09 -  
[DIR]Organic/07-May-2015 16:09 -  
[DIR]Papers/07-May-2015 16:07 -  
[DIR]Particles/18-Apr-2017 17:12 -  
[DIR]Ph4060/07-May-2015 16:09 -  
[DIR]QCC/07-May-2015 16:07 -  
[DIR]Relativ/07-May-2015 16:09 -  
[DIR]Snapshot/07-May-2015 16:07 -  
[DIR]Solar/09-Nov-2016 10:25 -  
[DIR]Solids/07-May-2015 16:09 -  
[DIR]Sound/07-May-2015 16:10 -  
[DIR]Starlog/07-May-2015 16:10 -  
[DIR]Tables/07-May-2015 16:10 -  
[DIR]Therm/07-May-2015 16:10 -  
[DIR]Waves/07-May-2015 16:10 -  
[DIR]aapic/07-May-2015 16:06 -  
[DIR]atmos/07-May-2015 16:07 -  
[DIR]electric/07-May-2015 16:07 -  
[DIR]geoopt/09-Nov-2016 10:23 -  
[DIR]images/16-Feb-2017 13:54 -  
[DIR]images2/24-Feb-2017 21:55 -  
[DIR]imgmdl/07-May-2015 16:07 -  
[DIR]imgmec/08-Feb-2017 22:00 -  
[DIR]imgmod/09-Nov-2016 10:24 -  
[DIR]imgmod2/19-Jan-2017 09:38 -  
[DIR]imgmth/13-Mar-2017 17:02 -  
[DIR]magnetic/07-May-2015 16:08 -  
[DIR]molecule/07-May-2015 16:09 -  
[DIR]optmod/07-May-2015 16:09 -  
[DIR]pertab/07-May-2015 16:09 -  
[DIR]phyhis/07-May-2015 16:09 -  
[DIR]phyopt/07-May-2015 16:09 -  
[DIR]quantum/07-May-2015 16:09 -  
[DIR]thermo/07-May-2015 16:10 -  
[DIR]vision/07-May-2015 16:10 -  
[TXT]index2.html09-Nov-2016 10:23 60  
[TXT]hframe.html09-Nov-2016 10:23 221  
[TXT]emwav.html09-Nov-2016 10:23 766  
[TXT]geofm.html09-Nov-2016 10:23 807  
[TXT]soucono.html09-Nov-2016 10:23 842  
[TXT]generic.html09-Nov-2016 10:23 909  
[TXT]airfri4.html09-Nov-2016 10:23 941  
[TXT]balls.html09-Nov-2016 10:23 1.1K 
[TXT]DC Circuit Examples09-Nov-2016 10:23 1.1K 
[TXT]intphy.html09-Nov-2016 10:23 1.2K 
[TXT]log.html09-Nov-2016 10:23 1.2K 
[TXT]fallq.html09-Nov-2016 10:23 1.2K 
[TXT]ecab.html09-Nov-2016 10:23 1.2K 
[TXT]expc.html09-Nov-2016 10:23 1.2K 
[TXT]lalg.html09-Nov-2016 10:23 1.2K 
[TXT]sphinc.html09-Nov-2016 10:23 1.3K 
[TXT]Optalb.html09-Nov-2016 10:23 1.3K 
[TXT]cplxcon.html09-Nov-2016 10:23 1.3K 
[TXT]rkecon.html09-Nov-2016 10:23 1.3K 
[TXT]geom.html09-Nov-2016 10:23 1.4K 
[TXT]trig.html09-Nov-2016 10:23 1.4K 
[TXT]fequ.html09-Nov-2016 10:23 1.4K 
[TXT]Na.html09-Nov-2016 10:23 1.4K 
[TXT]tridcon.html09-Nov-2016 10:23 1.4K 
[TXT]vecid.html03-Apr-2017 22:21 1.4K 
[TXT]HPhlinks.html09-Nov-2016 10:23 1.4K 
[TXT]powcon.html09-Nov-2016 10:23 1.5K 
[TXT]toreq.html09-Nov-2016 10:23 1.5K 
[TXT]rotv3.html09-Nov-2016 10:23 1.5K 
[TXT]vecm.html01-Apr-2017 19:33 1.5K 
[TXT]wcon.html09-Nov-2016 10:23 1.5K 
[TXT]tord.html09-Nov-2016 10:23 1.5K 
[TXT]buocon.html09-Nov-2016 10:23 1.5K 
[TXT]lapcon.html09-Nov-2016 10:23 1.5K 
[TXT]unccon.html09-Nov-2016 10:23 1.6K 
[TXT]calc.html09-Nov-2016 10:23 1.6K 
[TXT]de.html09-Nov-2016 10:23 1.6K 
[TXT]parax.html09-Nov-2016 10:23 1.6K 
[TXT]vrox.html09-Nov-2016 10:23 1.7K 
[TXT]earg.html09-Nov-2016 10:23 1.7K 
[TXT]freeb.html09-Nov-2016 10:23 1.7K 
[TXT]enecon.html09-Nov-2016 10:23 1.7K 
[TXT]stkm.html09-Nov-2016 10:23 1.7K 
[TXT]dercon.html09-Nov-2016 10:23 1.7K 
[TXT]fricon.html09-Nov-2016 10:23 1.7K 
[TXT]poicon.html09-Nov-2016 10:23 1.7K 
[TXT]alg.html09-Nov-2016 10:23 1.7K 
[TXT]PHSC.html09-Nov-2016 10:23 1.7K 
[TXT]davger.html09-Nov-2016 10:23 1.8K 
[TXT]scacon.html09-Nov-2016 10:23 1.8K 
[TXT]bohrcn.html09-Nov-2016 10:23 1.8K 
[TXT]pasc4.html09-Nov-2016 10:23 1.8K 
[TXT]pbuoy3m.html09-Nov-2016 10:23 1.8K 
[TXT]goo.html09-Nov-2016 10:23 1.8K 
[TXT]aaptl.html09-Nov-2016 10:23 1.8K 
[TXT]pascon.html09-Nov-2016 10:23 1.8K 
[TXT]bercon.html09-Nov-2016 10:23 1.8K 
[TXT]vel.html09-Nov-2016 10:23 1.9K 
[TXT]pasc3.html09-Nov-2016 10:23 1.9K 
[TXT]pbuoy3.html09-Nov-2016 10:23 1.9K 
[TXT]grexp.html09-Nov-2016 10:23 1.9K 
[TXT]hoocyl2.html09-Nov-2016 10:23 1.9K 
[TXT]intcon.html09-Nov-2016 10:23 2.0K 
[TXT]acca.html09-Nov-2016 10:23 2.0K 
[TXT]focapp.html09-Nov-2016 10:23 2.0K 
[TXT]rttri.html09-Nov-2016 10:23 2.1K 
[TXT]precon.html07-May-2015 16:06 2.1K 
[TXT]inecon.html09-Nov-2016 10:23 2.1K 
[TXT]caba.html09-Nov-2016 10:23 2.1K 
[TXT]permot.html09-Nov-2016 10:23 2.1K 
[TXT]torcon.html09-Nov-2016 10:23 2.1K 
[TXT]Precon.html09-Nov-2016 10:23 2.2K 
[TXT]orbit.html09-Nov-2016 10:23 2.3K 
[TXT]tayser.html09-Nov-2016 10:23 2.3K 
[TXT]cabw.html09-Nov-2016 10:23 2.3K 
[IMG]MERLOT05.gif09-Nov-2016 10:23 2.3K 
[TXT]WEapp.html07-May-2015 16:06 2.4K 
[TXT]col2d.html09-Nov-2016 10:23 2.4K 
[TXT]n2r.html09-Nov-2016 10:23 2.4K 
[TXT]bbcon.html09-Nov-2016 10:23 2.4K 
[TXT]lapl.html09-Nov-2016 10:23 2.5K 
[TXT]pencom.html02-Jan-2017 18:27 2.5K 
[TXT]units2ndpart.html09-Nov-2016 10:23 2.5K 
[TXT]weapp.html09-Nov-2016 10:23 2.5K 
[TXT]deter.html09-Nov-2016 10:23 2.5K 
[TXT]flufri.html09-Nov-2016 10:23 2.6K 
[TXT]dist.html09-Nov-2016 10:23 2.6K 
[TXT]Hgill.html09-Nov-2016 10:23 2.6K 
[TXT]penrod.html09-Nov-2016 10:23 2.7K 
[TXT]hmat.html09-Nov-2016 10:23 2.7K 
[TXT]rutcon.html09-Nov-2016 10:23 2.7K 
[TXT]resapp.html09-Nov-2016 10:23 2.7K 
[TXT]mom.html09-Nov-2016 10:23 2.7K 
[TXT]vbas.html09-Nov-2016 10:23 2.7K 
[TXT]perpx.html09-Nov-2016 10:23 2.7K 
[TXT]cmms.html09-Nov-2016 10:23 2.8K 
[TXT]quacon.html09-Nov-2016 10:23 2.8K 
[TXT]trgser.html13-Mar-2017 17:02 2.8K 
[TXT]fluid.html09-Nov-2016 10:23 2.8K 
[TXT]posit.html09-Nov-2016 10:23 2.8K 
[TXT]rke.html09-Nov-2016 10:23 2.8K 
[TXT]rayjean.html09-Nov-2016 10:23 2.8K 
[TXT]heacon.html09-Nov-2016 10:23 2.8K 
[TXT]solcon.html09-Nov-2016 10:23 2.8K 
[TXT]airfri3.html09-Nov-2016 10:23 2.8K 
[TXT]pencir.html09-Nov-2016 10:23 2.9K 
[TXT]fcab.html09-Nov-2016 10:23 2.9K 
[TXT]pbuoy2.html09-Nov-2016 10:23 2.9K 
[TXT]inttyp.html09-Nov-2016 10:23 2.9K 
[TXT]pbuoy5.html09-Nov-2016 10:23 2.9K 
[TXT]Tmathtable.html09-Nov-2016 10:23 2.9K 
[TXT]relmot.html09-Nov-2016 10:23 2.9K 
[TXT]chom.html09-Nov-2016 10:23 2.9K 
[TXT]boatc3.html09-Nov-2016 10:23 2.9K 
[TXT]oscda2.html09-Nov-2016 10:23 2.9K 
[TXT]boatc2.html09-Nov-2016 10:23 2.9K 
[TXT]Hgill2.html09-Nov-2016 10:23 3.0K 
[TXT]rstoo.html09-Nov-2016 10:23 3.0K 
[TXT]WEapp2.html07-May-2015 16:06 3.0K 
[TXT]duck2.html09-Nov-2016 10:23 3.0K 
[TXT]flobi.html08-Feb-2017 21:56 3.1K 
[TXT]trajhor.html09-Nov-2016 10:23 3.1K 
[TXT]circ.html09-Nov-2016 10:23 3.1K 
[TXT]duck.html09-Nov-2016 10:23 3.1K 
[TXT]alg4.html09-Nov-2016 10:23 3.1K 
[TXT]hpul.html09-Nov-2016 10:23 3.1K 
[TXT]acmas.html09-Nov-2016 10:23 3.1K 
[TXT]varve.html09-Nov-2016 10:23 3.2K 
[TXT]nuccon.html08-Feb-2017 22:03 3.2K 
[TXT]mstk.html09-Nov-2016 10:23 3.2K 
[TXT]wint.html09-Nov-2016 10:23 3.2K 
[TXT]cseri.html09-Nov-2016 10:23 3.2K 
[TXT]trajs.html09-Nov-2016 10:23 3.2K 
[TXT]colcon.html09-Nov-2016 10:23 3.2K 
[TXT]mod7.html09-Nov-2016 10:23 3.2K 
[TXT]logm2.html09-Nov-2016 10:23 3.2K 
[TXT]f2m2.html09-Nov-2016 10:23 3.3K 
[TXT]nucrefa.html09-Nov-2016 10:23 3.3K 
[TXT]mlif.html09-Nov-2016 10:23 3.3K 
[TXT]permot2.html09-Nov-2016 10:23 3.3K 
[TXT]orbv2.html09-Nov-2016 10:23 3.3K 
[TXT]ppois4.html09-Nov-2016 10:23 3.3K 
[TXT]bike.html09-Nov-2016 10:23 3.3K 
[TXT]mincl2.html09-Nov-2016 10:23 3.4K 
[TXT]rocket3.html09-Nov-2016 10:23 3.5K 
[TXT]acmang.html09-Nov-2016 10:23 3.5K 
[TXT]curl.html09-Nov-2016 10:23 3.5K 
[TXT]solorb.html09-Nov-2016 10:23 3.5K 
[TXT]top.html09-Nov-2016 10:23 3.6K 
[TXT]weapp2.html09-Nov-2016 10:23 3.6K 
[TXT]boom.html09-Nov-2016 10:23 3.6K 
[TXT]diverg.html09-Nov-2016 10:23 3.7K 
[TXT]boatc.html09-Nov-2016 10:23 3.7K 
[TXT]ppois3.html09-Nov-2016 10:23 3.7K 
[TXT]hpul2.html09-Nov-2016 10:23 3.7K 
[TXT]gradi.html09-Nov-2016 10:23 3.8K 
[TXT]intfun.html09-Nov-2016 10:23 3.8K 
[TXT]lsin.html09-Nov-2016 10:23 3.8K 
[TXT]trid.html09-Nov-2016 10:23 3.8K 
[TXT]callim.html09-Nov-2016 10:23 3.8K 
[TXT]fcm.html09-Nov-2016 10:23 3.8K 
[TXT]incpl.html09-Nov-2016 10:23 3.8K 
[TXT]pespr.html09-Nov-2016 10:23 3.9K 
[TXT]trid2.html09-Nov-2016 10:23 3.9K 
[TXT]egex2.html09-Nov-2016 10:23 3.9K 
[TXT]atwd.html09-Nov-2016 10:23 3.9K 
[TXT]ihoop.html09-Nov-2016 10:23 3.9K 
[TXT]vecal2.html09-Nov-2016 10:23 3.9K 
[TXT]QUNOH.html09-Nov-2016 10:23 4.0K 
[TXT]qunoh.html07-May-2015 16:06 4.0K 
[TXT]mecref.html09-Nov-2016 10:23 4.0K 
[TXT]inecol.html09-Nov-2016 10:23 4.0K 
[TXT]N2st.html09-Nov-2016 10:23 4.0K 
[TXT]woang.html09-Nov-2016 10:23 4.0K 
[TXT]f2m.html09-Nov-2016 10:23 4.1K 
[TXT]inecol2.html09-Nov-2016 10:23 4.1K 
[TXT]torq2.html09-Nov-2016 10:23 4.1K 
[TXT]truckc2.html09-Nov-2016 10:23 4.1K 
[TXT]lindrg2.html09-Nov-2016 10:23 4.1K 
[TXT]lindrg3.html09-Nov-2016 10:23 4.1K 
[TXT]force.html09-Nov-2016 10:23 4.2K 
[TXT]amom.html09-Nov-2016 10:23 4.2K 
[TXT]faia.html09-Nov-2016 10:23 4.2K 
[TXT]alg3.html09-Nov-2016 10:23 4.2K 
[TXT]ttrig.html09-Nov-2016 10:23 4.2K 
[TXT]intdef.html09-Nov-2016 10:23 4.2K 
[TXT]ptens.html09-Nov-2016 10:23 4.2K 
[TXT]flobj.html09-Nov-2016 10:23 4.2K 
[TXT]vecal.html09-Nov-2016 10:23 4.3K 
[TXT]rotv2.html09-Nov-2016 10:23 4.3K 
[TXT]emcon.html09-Nov-2016 10:23 4.3K 
[TXT]pendl.html02-Feb-2017 20:22 4.3K 
[TXT]gyr.html09-Nov-2016 10:23 4.4K 
[TXT]intare.html09-Nov-2016 10:23 4.4K 
[TXT]dens.html09-Nov-2016 10:23 4.4K 
[IMG]psigate.gif09-Nov-2016 10:23 4.4K 
[TXT]extms.html09-Nov-2016 10:23 4.4K 
[TXT]acons.html09-Nov-2016 10:23 4.4K 
[TXT]iras.html09-Nov-2016 10:23 4.4K 
[TXT]vesc.html09-Nov-2016 10:23 4.4K 
[TXT]qapp.html09-Nov-2016 10:23 4.4K 
[IMG]apt2.gif09-Nov-2016 10:23 4.5K 
[TXT]rotv.html09-Nov-2016 10:23 4.5K 
[TXT]acmang2.html09-Nov-2016 10:23 4.5K 
[TXT]acmas2.html09-Nov-2016 10:23 4.5K 
[TXT]pbuoy4.html09-Nov-2016 10:23 4.5K 
[TXT]elacol2.html09-Nov-2016 10:23 4.5K 
[TXT]logm.html09-Nov-2016 10:23 4.6K 
[TXT]sphc.html09-Nov-2016 10:23 4.6K 
[TXT]pendp.html09-Nov-2016 10:23 4.6K 
[TXT]inecol3.html09-Nov-2016 10:23 4.6K 
[TXT]exp.html09-Nov-2016 10:23 4.6K 
[TXT]work.html09-Nov-2016 10:23 4.7K 
[TXT]limn2.html09-Nov-2016 10:23 4.7K 
[TXT]incpl2.html09-Nov-2016 10:23 4.7K 
[TXT]ligcon.html09-Nov-2016 10:23 4.7K 
[TXT]isph.html09-Nov-2016 10:23 4.7K 
[TXT]impcal.html09-Nov-2016 10:23 4.7K 
[TXT]vel2.html09-Nov-2016 10:23 4.7K 
[TXT]deriv.html09-Nov-2016 10:23 4.8K 
[TXT]elev.html09-Nov-2016 10:23 4.8K 
[TXT]torq.html09-Nov-2016 10:23 4.8K 
[TXT]rotwe.html09-Nov-2016 10:23 4.8K 
[TXT]coord.html09-Nov-2016 10:23 4.8K 
[TXT]hoocyl.html09-Nov-2016 10:23 4.9K 
[TXT]nucref.html09-Nov-2016 10:23 4.9K 
[TXT]cmplx.html09-Nov-2016 10:23 4.9K 
[TXT]pauli.html09-Nov-2016 10:23 4.9K 
[TXT]faia2.html09-Nov-2016 10:23 5.0K 
[TXT]airpw2.html09-Nov-2016 10:23 5.0K 
[TXT]gaseng.html09-Nov-2016 10:23 5.0K 
[TXT]ppois2.html09-Nov-2016 10:23 5.0K 
[TXT]truckc.html09-Nov-2016 10:23 5.0K 
[TXT]mincl.html09-Nov-2016 10:23 5.0K 
[TXT]prcal.html09-Nov-2016 10:23 5.1K 
[TXT]vsca2.html09-Nov-2016 10:23 5.2K 
[TXT]airpw3.html09-Nov-2016 10:23 5.2K 
[TXT]ke.html09-Nov-2016 10:23 5.3K 
[TXT]pow.html09-Nov-2016 10:23 5.3K 
[TXT]avari.html09-Nov-2016 10:23 5.3K 
[TXT]orbv3.html09-Nov-2016 10:23 5.3K 
[TXT]oscdr.html09-Nov-2016 10:23 5.4K 
[TXT]soushm.html09-Nov-2016 10:23 5.5K 
[TXT]diff2.html09-Nov-2016 10:23 5.5K 
[TXT]atpro.html09-Nov-2016 10:23 5.5K 
[TXT]oscda.html09-Nov-2016 10:23 5.6K 
[TXT]cm.html09-Nov-2016 10:23 5.6K 
[TXT]handb.html09-Nov-2016 10:23 5.6K 
[TXT]capdis.html09-Nov-2016 10:23 5.7K 
[TXT]ewav.html09-Nov-2016 10:23 5.7K 
[TXT]humeng.html09-Nov-2016 10:23 5.8K 
[TXT]carcr.html01-Feb-2017 09:53 5.8K 
[TXT]vctorq.html09-Nov-2016 10:23 5.8K 
[TXT]lcos.html09-Nov-2016 10:23 5.8K 
[TXT]corf.html09-Nov-2016 10:23 5.9K 
[TXT]balpen.html09-Nov-2016 10:23 5.9K 
[TXT]pasc2.html25-Feb-2017 00:18 5.9K 
[TXT]bbrc.html09-Nov-2016 10:23 5.9K 
[IMG]apt1.gif09-Nov-2016 10:23 6.0K 
[TXT]col1d.html09-Nov-2016 10:23 6.0K 
[TXT]tide.html09-Nov-2016 10:23 6.0K 
[TXT]lhel.html09-Nov-2016 10:23 6.2K 
[TXT]airfri.html09-Nov-2016 10:23 6.3K 
[TXT]permot3.html09-Nov-2016 10:23 6.3K 
[TXT]carcr2.html09-Nov-2016 10:23 6.3K 
[TXT]rutsca.html09-Nov-2016 10:23 6.5K 
[TXT]pber2.html09-Nov-2016 10:23 6.5K 
[TXT]mottest.html09-Nov-2016 10:23 6.5K 
[TXT]airpw.html09-Nov-2016 10:23 6.5K 
[TXT]rotqb.html09-Nov-2016 10:23 6.6K 
[TXT]Holdev.html09-Nov-2016 10:23 6.7K 
[TXT]hydwf.html09-Nov-2016 10:23 6.8K 
[TXT]egex.html09-Nov-2016 10:23 6.8K 
[TXT]seatb.html09-Nov-2016 10:23 6.8K 
[TXT]tdisc.html09-Nov-2016 10:23 6.8K 
[TXT]integ.html09-Nov-2016 10:23 6.8K 
[TXT]ems1.html09-Nov-2016 10:23 6.8K 
[TXT]c.html09-Nov-2016 10:23 6.8K 
[TXT]elacol.html09-Nov-2016 10:23 6.8K 
[TXT]intpol.html09-Nov-2016 10:23 6.9K 
[TXT]wavrel.html09-Nov-2016 10:23 6.9K 
[TXT]watwav.html09-Nov-2016 10:23 6.9K 
[TXT]crstp.html09-Nov-2016 10:23 7.0K 
[TXT]cmplx2.html09-Nov-2016 10:23 7.0K 
[TXT]quaref.html09-Nov-2016 10:23 7.0K 
[TXT]shm.html09-Nov-2016 10:23 7.1K 
[TXT]pflu.html09-Nov-2016 10:23 7.2K 
[TXT]frict3.html09-Nov-2016 10:23 7.2K 
[TXT]press.html09-Nov-2016 10:23 7.2K 
[TXT]alg2.html09-Nov-2016 10:23 7.5K 
[TXT]pfric2.html09-Nov-2016 10:23 7.5K 
[TXT]rocket2.html08-Feb-2017 21:56 7.5K 
[TXT]gps.html09-Nov-2016 10:23 7.5K 
[IMG]apt199.gif09-Nov-2016 10:23 7.5K 
[TXT]inecol4.html09-Nov-2016 10:23 7.6K 
[TXT]pturb.html09-Nov-2016 10:23 7.6K 
[TXT]doubal.html09-Nov-2016 10:23 7.7K 
[TXT]mass.html09-Nov-2016 10:23 7.7K 
[TXT]icyl.html09-Nov-2016 10:23 7.8K 
[TXT]vecmag.html09-Nov-2016 10:23 7.8K 
[TXT]cf.html09-Nov-2016 10:23 7.8K 
[TXT]frhz.html09-Nov-2016 10:23 7.9K 
[TXT]rocket.html09-Nov-2016 10:23 7.9K 
[TXT]brng.html09-Nov-2016 10:23 7.9K 
[TXT]frict2.html09-Nov-2016 10:23 8.1K 
[TXT]shm2.html09-Nov-2016 10:23 8.1K 
[TXT]pfric.html09-Nov-2016 10:23 8.2K 
[TXT]time.html09-Nov-2016 10:23 8.2K 
[TXT]Template.html09-Nov-2016 10:23 8.3K 
[TXT]aaptm.html09-Nov-2016 10:23 8.4K 
[TXT]mod4.html09-Nov-2016 10:23 8.4K 
[TXT]mi2.html20-Jan-2017 15:31 8.5K 
[TXT]ptens2.html09-Nov-2016 10:23 8.5K 
[TXT]vsca.html09-Nov-2016 10:23 8.5K 
[TXT]gpot.html09-Nov-2016 10:23 8.6K 
[TXT]pbuoy.html09-Nov-2016 10:23 8.6K 
[TXT]pasc.html09-Nov-2016 10:23 8.7K 
[TXT]work2.html11-Aug-2017 20:00 8.7K 
[TXT]units.html09-Nov-2016 10:23 8.7K 
[TXT]ppois.html09-Nov-2016 10:23 8.8K 
[TXT]oscdr2.html09-Nov-2016 10:23 8.8K 
[TXT]bohr.html09-Nov-2016 10:23 8.9K 
[TXT]acloc.html09-Nov-2016 10:23 8.9K 
[TXT]FrHzL.html09-Nov-2016 10:23 9.2K 
[TXT]frict.html09-Nov-2016 10:23 9.2K 
[TXT]mod1.html09-Nov-2016 10:23 9.2K 
[   ]imatherm09-Nov-2016 10:23 9.5K 
[TXT]gpsrec.html09-Nov-2016 10:23 9.5K 
[TXT]HoloL.html09-Nov-2016 10:23 9.5K 
[TXT]pend.html09-Nov-2016 10:23 9.8K 
[TXT]colsta.html09-Nov-2016 10:23 9.8K 
[TXT]HPhc.html09-Nov-2016 10:23 10K 
[TXT]pegrav.html16-Feb-2017 13:54 10K 
[TXT]ems2.html09-Nov-2016 10:23 10K 
[TXT]orbv.html09-Nov-2016 10:23 10K 
[TXT]diff.html09-Nov-2016 10:23 10K 
[TXT]uncer.html09-Nov-2016 10:23 10K 
[TXT]lindrg.html09-Nov-2016 10:23 10K 
[TXT]ptens3.html09-Nov-2016 10:23 10K 
[TXT]mod5.html09-Nov-2016 10:23 10K 
[TXT]surten2.html09-Nov-2016 10:23 11K 
[TXT]airfri2.html09-Nov-2016 10:23 11K 
[TXT]vvec.html09-Nov-2016 10:23 11K 
[TXT]kepler.html01-Apr-2017 19:33 11K 
[TXT]surten.html09-Nov-2016 10:23 11K 
[TXT]ems3.html09-Nov-2016 10:23 11K 
[TXT]mi.html20-Jan-2017 15:31 11K 
[TXT]wien.html09-Nov-2016 10:23 11K 
[TXT]hyde.html09-Nov-2016 10:23 11K 
[TXT]pman.html09-Nov-2016 10:23 11K 
[TXT]mod6.html09-Nov-2016 10:23 11K 
[TXT]unitc.html09-Nov-2016 10:23 11K 
[TXT]mod3.html09-Nov-2016 10:23 12K 
[TXT]conser.html09-Nov-2016 10:23 12K 
[TXT]Installer Log File09-Nov-2016 10:23 12K 
[TXT]grav.html09-Nov-2016 10:23 12K 
[IMG]hphcdt.jpg09-Nov-2016 10:23 12K 
[TXT]eclip.html09-Nov-2016 10:23 12K 
[TXT]seatb2.html09-Nov-2016 10:23 13K 
[IMG]apt3.gif09-Nov-2016 10:23 13K 
[TXT]spin.html21-Jan-2017 18:49 13K 
[TXT]debrog.html09-Nov-2016 10:23 14K 
[TXT]newt.html09-Nov-2016 10:23 14K 
[TXT]mod2.html01-Apr-2017 19:33 14K 
[TXT]bkg3k.html09-Nov-2016 10:23 14K 
[IMG]Hphmin.jpg09-Nov-2016 10:23 15K 
[   ]imanuc09-Nov-2016 10:23 15K 
[TXT]impulse.html08-Feb-2017 22:03 16K 
[IMG]aapt399.gif09-Nov-2016 10:23 16K 
[IMG]hphcd.jpg09-Nov-2016 10:23 18K 
[TXT]hph.html24-Feb-2017 21:54 18K 
[TXT]pber.html09-Nov-2016 10:23 19K 
[TXT]vecta.html09-Nov-2016 10:23 20K 
[TXT]vectb.html09-Nov-2016 10:23 20K 
[TXT]motb.html09-Nov-2016 10:23 21K 
[TXT]vect.html09-Nov-2016 10:23 21K 
[TXT]rotq.html09-Nov-2016 10:23 22K 
[TXT]hphp.html09-Nov-2016 10:23 22K 
[TXT]mot.html09-Nov-2016 10:23 22K 
[   ]imamod09-Nov-2016 10:23 27K 
[TXT]Indxback.html09-Nov-2016 10:23 34K 
[TXT]traj.html09-Nov-2016 10:23 36K 
[TXT]Indxb.html09-Nov-2016 10:23 40K 
[   ]imaelec09-Nov-2016 10:23 48K 
[TXT]Indx.html09-Nov-2016 10:23 51K 
[   ]Imasound09-Nov-2016 10:23 87K 
[   ]imgast09-Nov-2016 10:23 95K 
[   ]Imamapc09-Nov-2016 10:23 96K 
[   ]imaopt09-Nov-2016 10:23 99K 
[   ]schmitt209-Nov-2016 10:23 155K 
[   ]Imamap209-Nov-2016 10:23 313K 
[VID]BPascal.mov09-Nov-2016 10:23 449K 
[VID]Hoocyl.mp409-Nov-2016 10:23 685K 
[VID]Hoocyl.mov09-Nov-2016 10:23 2.3M 

Apache/2.2.15 (CentOS) Server at hyperphysics.phy-astr.gsu.edu Port 80